ENBL/FDE METAR and TAF weather

Enter ICAO airport designator
Station Type Date Time Source
ENBL METAR 2019/10/21 21:20 UTC NOAA

ENBL 212120Z 19013KT 160V230 9999 -RA FEW007 SCT014 BKN019 05/04 Q1010


Station Type Date Time Source
ENBL Decoded METAR 2019/10/21 21:20 UTC NOAA

Forde / Bringeland, Norway (ENBL) 61-27N 005-52E
Oct 21, 2019 - 05:20 PM EDT / 2019.10.21 2120 UTC
Wind: from the S (190 degrees) at 15 MPH (13 KT) (direction variable):0
Visibility: greater than 7 mile(s):0
Sky conditions: mostly cloudy
Weather: light rain
Temperature: 41 F (5 C)
Dew Point: 39 F (4 C)
Relative Humidity: 93%
Pressure (altimeter): 29.83 in. Hg (1010 hPa)
ob: ENBL 212120Z 19013KT 160V230 9999 -RA FEW007 SCT014 BKN019 05/04 Q1010
cycle: 21

Station Type Date Time Source
ENBL TAF UTC NOAA

Error!

Example: see airport list